Jack Mc Namara Field Airport
KCEC : now visible

Airfield :











YOU CAN JOIN US ON...

 
LOGIN :

Register | Disclaimer

   EN    FR    IT 

 









Legend :    VFR   Marginal VFR   IFR   Intensive IFR   Very Intensive IFR
Visi :
Ceiling :
>= 8 km
>= 3000ft
5 to 8 km
1000 to 3000 ft
1500m to 5 km
500 to 1000 ft
800 to 1500m
200 to 500 ft
< 800m
< 200 ft
Symbols :   Thunderstorms  Fog  Heavy snow  Heavy precipitations  Wind > 20 kt






- Airport Elevation : 61 ft
- IATA code : CEC


KCEC - Jack Mc Namara Field

CURRENT METAR :
  • 122256Z AUTO 34005KT 1/2SM FG VV002 10/09 A3010 RMK AO2 SLP194 T01000094

EXPIRED METARs :
  • 122245Z AUTO 34004KT 3SM BR OVC002 10/10 A3010 RMK AO2 T01000100
  • 122229Z AUTO 35004KT 1/2SM FG VV002 10/10 A3011 RMK AO2 T01000100
  • 122216Z AUTO 35006KT 1 1/4SM BR OVC002 10/10 A3012 RMK AO2 T01000100
  • 122156Z AUTO 01007KT 3/4SM BR VV002 10/09 A3012 RMK AO2 SLP201 T01000094
  • 122056Z AUTO 34005KT 1/4SM FG VV002 10/10 A3013 RMK AO2 SLP203 T01000100 58005

TAF KCEC
Valid from the 13 at 00:00 until the 14 at 00:00 UTC


122331Z 1300/1324 34005KT 1SM BR OVC002
TEMPO 1300/1304 1/2SM FG VV002
FM130600 14004KT 1/2SM FG VV002
FM131700 17003KT 2SM BR OVC002



MET'MAP, your aeronautical weather chart ! - Copyright ORBIFLY December 2007 - Disclaimer

ORBIFLY MET'MAP TEAM :

Programming & Development : Alexandra Zaïnal
Concept & Development : Baudouin d'Aumeries
Co-Development & Prog : Marc-Olivier Méhu
Technical & hardware support : Manuel Goepfert

Contact : metmap@orbifly.com




SOURCES & CREDITS :

   NOAA       Earth
Advisory